createdAt,value
2022-10-11T00:00:11.457Z,11.47
2022-10-11T00:02:38.799Z,11.45
2022-10-11T00:05:05.985Z,11.48
2022-10-11T00:07:32.748Z,11.40
2022-10-11T00:09:59.990Z,11.51
2022-10-11T00:12:26.848Z,11.50
2022-10-11T00:14:53.651Z,11.49
2022-10-11T00:17:20.568Z,11.45
2022-10-11T00:19:47.353Z,11.54
2022-10-11T00:22:14.608Z,11.48
2022-10-11T00:24:41.514Z,11.50
2022-10-11T00:27:08.351Z,11.45
2022-10-11T00:29:35.303Z,11.44
2022-10-11T00:32:02.080Z,11.38
2022-10-11T00:34:28.878Z,11.33
2022-10-11T00:36:55.852Z,11.44
2022-10-11T00:39:23.120Z,11.45
2022-10-11T00:41:50.093Z,11.42
2022-10-11T00:44:22.982Z,11.30
2022-10-11T00:47:03.271Z,11.26
2022-10-11T00:49:39.325Z,11.29
2022-10-11T00:52:14.435Z,11.29
2022-10-11T00:54:43.784Z,11.37
2022-10-11T00:57:17.064Z,11.39
2022-10-11T00:59:49.351Z,11.50
2022-10-11T01:02:17.871Z,11.40
2022-10-11T01:04:45.956Z,11.46
2022-10-11T01:07:13.402Z,11.38
2022-10-11T01:09:40.273Z,11.40
2022-10-11T01:12:18.757Z,11.43
2022-10-11T01:14:54.763Z,11.42
2022-10-11T01:17:43.038Z,11.42
2022-10-11T01:20:12.679Z,11.47
2022-10-11T01:22:55.168Z,11.40
2022-10-11T01:25:56.160Z,11.44
2022-10-11T01:28:52.522Z,11.38
2022-10-11T01:31:37.206Z,11.47
2022-10-11T01:34:15.307Z,11.42
2022-10-11T01:36:49.835Z,11.43
2022-10-11T01:39:44.348Z,11.51
2022-10-11T01:42:13.357Z,11.46
2022-10-11T01:44:43.119Z,11.42
2022-10-11T01:47:09.957Z,11.47
2022-10-11T01:49:36.837Z,11.44
2022-10-11T01:52:07.161Z,11.45
2022-10-11T01:55:08.648Z,11.36
2022-10-11T01:58:08.048Z,11.23
2022-10-11T02:00:52.379Z,11.21
2022-10-11T02:03:42.173Z,11.22
2022-10-11T02:06:24.197Z,11.20
2022-10-11T02:09:08.413Z,11.18
2022-10-11T02:11:36.892Z,11.11
2022-10-11T02:14:11.870Z,11.10
2022-10-11T02:16:46.642Z,11.21
2022-10-11T02:19:17.101Z,11.16
2022-10-11T02:21:47.432Z,11.16
2022-10-11T02:24:22.351Z,11.18
2022-10-11T02:26:53.048Z,11.14
2022-10-11T02:29:22.957Z,11.07
2022-10-11T02:31:51.283Z,11.03
2022-10-11T02:34:27.016Z,10.97
2022-10-11T02:37:15.984Z,10.90
2022-10-11T02:39:49.021Z,10.93
2022-10-11T02:42:24.546Z,10.88
2022-10-11T02:44:56.620Z,10.90
2022-10-11T02:47:23.702Z,10.93
2022-10-11T02:49:50.594Z,10.96
2022-10-11T02:52:17.503Z,10.94
2022-10-11T02:54:44.345Z,11.03
2022-10-11T02:57:11.245Z,11.11
2022-10-11T02:59:38.163Z,11.13
2022-10-11T03:02:05.126Z,11.10
2022-10-11T03:04:32.465Z,11.05
2022-10-11T03:06:59.230Z,11.11
2022-10-11T03:09:26.305Z,11.08
2022-10-11T03:11:53.083Z,11.00
2022-10-11T03:14:19.896Z,11.02
2022-10-11T03:16:46.673Z,11.09
2022-10-11T03:19:18.316Z,11.06
2022-10-11T03:21:46.113Z,10.97
2022-10-11T03:24:13.006Z,11.08
2022-10-11T03:26:39.738Z,11.03
2022-10-11T03:29:06.627Z,11.02
2022-10-11T03:31:33.426Z,11.02
2022-10-11T03:34:00.207Z,11.07
2022-10-11T03:36:27.025Z,11.14
2022-10-11T03:38:53.848Z,11.14
2022-10-11T03:41:20.764Z,11.16
2022-10-11T03:43:47.730Z,11.18
2022-10-11T03:46:14.504Z,11.21
2022-10-11T03:48:41.359Z,11.23
2022-10-11T03:51:08.186Z,11.23
2022-10-11T03:53:35.071Z,11.26
2022-10-11T03:56:07.359Z,11.30
2022-10-11T03:58:35.412Z,11.32
2022-10-11T04:01:02.310Z,11.34
2022-10-11T04:03:31.812Z,11.39
2022-10-11T04:06:01.311Z,11.44
2022-10-11T04:08:28.159Z,11.49
2022-10-11T04:10:54.980Z,11.47
2022-10-11T04:13:21.995Z,11.45
2022-10-11T04:15:48.681Z,11.53
2022-10-11T04:18:15.713Z,11.54
2022-10-11T04:20:42.422Z,11.55
2022-10-11T04:23:09.472Z,11.53
2022-10-11T04:25:40.495Z,11.51
2022-10-11T04:28:07.600Z,11.55
2022-10-11T04:30:34.491Z,11.55
2022-10-11T04:33:02.927Z,11.55
2022-10-11T04:35:29.693Z,11.58
2022-10-11T04:37:56.832Z,11.61
2022-10-11T04:40:23.742Z,11.64
2022-10-11T04:42:50.475Z,11.64
2022-10-11T04:45:17.316Z,11.73
2022-10-11T04:47:44.127Z,11.85
2022-10-11T04:50:11.016Z,11.88
2022-10-11T04:52:37.806Z,12.05
2022-10-11T04:55:05.023Z,12.22
2022-10-11T04:57:32.237Z,12.33
2022-10-11T04:59:59.209Z,12.45
2022-10-11T05:02:26.130Z,12.50
2022-10-11T05:04:52.876Z,12.54
2022-10-11T05:07:20.094Z,12.57
2022-10-11T05:09:46.868Z,12.61
2022-10-11T05:12:13.659Z,12.59
2022-10-11T05:14:40.469Z,12.58
2022-10-11T05:17:07.488Z,12.43
2022-10-11T05:19:34.255Z,12.22
2022-10-11T05:22:01.100Z,12.08
2022-10-11T05:24:27.927Z,11.89
2022-10-11T05:26:54.725Z,11.74
2022-10-11T05:29:21.501Z,11.68
2022-10-11T05:31:48.381Z,11.58
2022-10-11T05:34:15.243Z,11.56
2022-10-11T05:36:42.012Z,11.51
2022-10-11T05:39:09.248Z,11.61
2022-10-11T05:41:36.030Z,11.50
2022-10-11T05:44:02.834Z,11.44
2022-10-11T05:46:29.692Z,11.41
2022-10-11T05:48:56.492Z,11.32
2022-10-11T05:51:23.584Z,11.24
2022-10-11T05:53:50.355Z,11.23
2022-10-11T05:56:23.085Z,11.21
2022-10-11T05:58:50.810Z,11.25
2022-10-11T06:01:23.293Z,11.33
2022-10-11T06:03:50.260Z,11.33
2022-10-11T06:06:17.844Z,11.40
2022-10-11T06:08:44.797Z,11.52
2022-10-11T06:11:12.439Z,11.53
2022-10-11T06:13:39.772Z,11.56
2022-10-11T06:16:08.231Z,11.65
2022-10-11T06:18:35.225Z,11.75
2022-10-11T06:21:02.639Z,11.72
2022-10-11T06:23:29.675Z,11.77
2022-10-11T06:26:00.828Z,11.83
2022-10-11T06:28:29.346Z,11.86
2022-10-11T06:30:56.729Z,11.93
2022-10-11T06:33:24.651Z,12.10
2022-10-11T06:35:58.881Z,12.26
2022-10-11T06:38:26.130Z,12.38
2022-10-11T06:40:53.052Z,12.43
2022-10-11T06:43:20.079Z,12.54
2022-10-11T06:45:46.860Z,12.60
2022-10-11T06:48:14.413Z,12.75
2022-10-11T06:50:59.220Z,12.87
2022-10-11T06:53:28.355Z,12.98
2022-10-11T06:56:02.992Z,13.09
2022-10-11T06:58:30.515Z,13.23
2022-10-11T07:01:05.550Z,13.34
2022-10-11T07:03:33.056Z,13.48
2022-10-11T07:06:08.445Z,13.59
2022-10-11T07:08:36.600Z,13.70
2022-10-11T07:11:08.862Z,13.77
2022-10-11T07:13:36.600Z,13.87
2022-10-11T07:16:05.875Z,13.97
2022-10-11T07:18:33.048Z,14.10
2022-10-11T07:21:04.202Z,14.21
2022-10-11T07:23:31.411Z,14.30
2022-10-11T07:25:58.628Z,14.40
2022-10-11T07:28:25.831Z,14.50
2022-10-11T07:30:52.767Z,14.53
2022-10-11T07:33:19.789Z,14.59
2022-10-11T07:35:48.618Z,14.65
2022-10-11T07:38:16.883Z,14.67
2022-10-11T07:40:47.340Z,14.82
2022-10-11T07:43:14.323Z,14.85
2022-10-11T07:45:42.756Z,14.92
2022-10-11T07:48:09.702Z,14.98
2022-10-11T07:50:36.572Z,15.02
2022-10-11T07:53:03.879Z,15.14
2022-10-11T07:55:34.827Z,15.19
2022-10-11T07:58:01.607Z,15.15
2022-10-11T08:00:28.378Z,15.20
2022-10-11T08:02:55.395Z,15.30
2022-10-11T08:05:22.198Z,15.37
2022-10-11T08:07:50.021Z,15.45
2022-10-11T08:10:16.857Z,15.54
2022-10-11T08:12:43.620Z,15.63
2022-10-11T08:15:11.048Z,15.71
2022-10-11T08:17:37.857Z,15.76
2022-10-11T08:20:05.619Z,15.86
2022-10-11T08:22:33.020Z,15.88
2022-10-11T08:24:59.790Z,15.92
2022-10-11T08:27:26.618Z,15.97
2022-10-11T08:29:53.573Z,15.91
2022-10-11T08:32:20.295Z,15.94
2022-10-11T08:34:47.102Z,15.88
2022-10-11T08:37:14.659Z,15.90
2022-10-11T08:39:41.394Z,15.92
2022-10-11T08:42:23.754Z,15.86
2022-10-11T08:45:10.705Z,15.82
2022-10-11T08:47:44.224Z,15.92
2022-10-11T08:50:19.525Z,16.04
2022-10-11T08:53:15.704Z,16.14
2022-10-11T08:55:49.087Z,16.22
2022-10-11T08:58:20.529Z,16.29
2022-10-11T09:00:51.428Z,16.31
2022-10-11T09:03:33.399Z,16.35
2022-10-11T09:06:12.619Z,16.39
2022-10-11T09:08:53.561Z,16.39
2022-10-11T09:11:32.723Z,16.43
2022-10-11T09:14:34.403Z,16.48
2022-10-11T09:17:38.463Z,16.51
2022-10-11T09:20:25.689Z,16.47
2022-10-11T09:23:26.534Z,16.54
2022-10-11T09:26:06.420Z,16.56
2022-10-11T09:28:51.683Z,16.57
2022-10-11T09:31:18.774Z,16.59
2022-10-11T09:33:51.015Z,16.59
2022-10-11T09:36:37.425Z,16.63
2022-10-11T09:39:06.708Z,16.66
2022-10-11T09:41:43.024Z,16.68
2022-10-11T09:44:19.839Z,16.73
2022-10-11T09:46:48.788Z,16.82
2022-10-11T09:49:19.686Z,16.86
2022-10-11T09:51:57.060Z,16.91
2022-10-11T09:54:45.678Z,16.93
2022-10-11T09:57:20.487Z,16.92
2022-10-11T10:00:11.975Z,16.90
2022-10-11T10:02:46.884Z,16.92
2022-10-11T10:05:17.922Z,16.99
2022-10-11T10:08:06.145Z,16.95
2022-10-11T10:10:46.125Z,17.00
2022-10-11T10:13:21.020Z,17.01
2022-10-11T10:15:50.985Z,17.10
2022-10-11T10:18:24.536Z,17.10
2022-10-11T10:20:54.634Z,17.10
2022-10-11T10:23:33.228Z,17.15
2022-10-11T10:26:29.177Z,17.23
2022-10-11T10:29:15.272Z,17.21
2022-10-11T10:32:09.258Z,17.26
2022-10-11T10:34:37.208Z,17.31
2022-10-11T10:37:20.079Z,17.30
2022-10-11T10:39:54.060Z,17.28
2022-10-11T10:42:21.419Z,17.30
2022-10-11T10:44:57.358Z,17.30
2022-10-11T10:47:47.703Z,17.36
2022-10-11T10:50:28.597Z,17.38
2022-10-11T10:53:13.914Z,17.42
2022-10-11T10:55:45.471Z,17.42
2022-10-11T10:58:27.611Z,17.45
2022-10-11T11:01:19.533Z,17.45
2022-10-11T11:03:58.323Z,17.47
2022-10-11T11:07:09.636Z,17.58
2022-10-11T11:09:55.547Z,17.62
2022-10-11T11:12:41.017Z,17.67
2022-10-11T11:15:43.800Z,17.68
2022-10-11T11:18:34.870Z,17.66
2022-10-11T11:21:30.827Z,17.60
2022-10-11T11:24:06.840Z,17.63
2022-10-11T11:26:44.052Z,17.73
2022-10-11T11:29:37.279Z,17.80
2022-10-11T11:32:18.639Z,17.79
2022-10-11T11:34:56.211Z,17.91
2022-10-11T11:37:31.756Z,17.91
2022-10-11T11:40:05.983Z,17.93
2022-10-11T11:42:47.749Z,17.85
2022-10-11T11:45:20.202Z,17.93
2022-10-11T11:47:56.760Z,18.01
2022-10-11T11:50:25.653Z,18.09
2022-10-11T11:53:18.146Z,18.06
2022-10-11T11:56:05.085Z,18.09
2022-10-11T11:58:37.652Z,18.14
2022-10-11T12:01:18.885Z,18.31
2022-10-11T12:03:50.722Z,18.36
2022-10-11T12:06:22.304Z,18.41
2022-10-11T12:09:24.887Z,18.33
2022-10-11T12:11:58.468Z,18.26
2022-10-11T12:14:29.735Z,18.25
2022-10-11T12:17:07.829Z,18.25
2022-10-11T12:19:36.618Z,18.29
2022-10-11T12:22:27.788Z,18.32
2022-10-11T12:24:58.859Z,18.37
2022-10-11T12:27:44.782Z,18.34
2022-10-11T12:30:45.779Z,18.31
2022-10-11T12:33:25.779Z,18.28
2022-10-11T12:35:55.619Z,18.32
2022-10-11T12:38:32.548Z,18.33
2022-10-11T12:41:11.724Z,18.29
2022-10-11T12:43:47.636Z,18.25
2022-10-11T12:46:53.014Z,18.24
2022-10-11T12:49:32.051Z,18.26
2022-10-11T12:52:18.529Z,18.28
2022-10-11T12:55:06.947Z,18.33
2022-10-11T12:58:05.144Z,18.45
2022-10-11T13:00:40.937Z,18.46
2022-10-11T13:03:48.034Z,18.53
2022-10-11T13:06:14.750Z,18.68
2022-10-11T13:08:45.357Z,18.74
2022-10-11T13:11:20.482Z,18.81
2022-10-11T13:13:55.502Z,18.80
2022-10-11T13:16:27.011Z,18.86
2022-10-11T13:18:59.938Z,18.80
2022-10-11T13:21:36.812Z,18.69
2022-10-11T13:24:12.853Z,18.70
2022-10-11T13:26:40.700Z,18.72
2022-10-11T13:29:42.013Z,18.67
2022-10-11T13:32:24.792Z,18.65
2022-10-11T13:35:01.786Z,18.55
2022-10-11T13:37:30.957Z,18.55
2022-10-11T13:39:58.554Z,18.62
2022-10-11T13:42:31.614Z,18.62
2022-10-11T13:44:59.926Z,18.64
2022-10-11T13:47:29.809Z,18.63
2022-10-11T13:50:09.239Z,18.61
2022-10-11T13:52:36.039Z,18.62
2022-10-11T13:55:05.588Z,18.65
2022-10-11T13:57:45.900Z,18.63
2022-10-11T14:00:16.497Z,18.54
2022-10-11T14:02:59.994Z,18.51
2022-10-11T14:05:31.471Z,18.44
2022-10-11T14:08:05.186Z,18.42
2022-10-11T14:10:33.111Z,18.48
2022-10-11T14:13:07.009Z,18.48
2022-10-11T14:15:36.907Z,18.43
2022-10-11T14:18:41.439Z,18.45
2022-10-11T14:21:20.192Z,18.43
2022-10-11T14:23:50.323Z,18.39
2022-10-11T14:26:18.879Z,18.41
2022-10-11T14:28:49.501Z,18.42
2022-10-11T14:31:16.349Z,18.50
2022-10-11T14:33:43.262Z,18.58
2022-10-11T14:36:11.017Z,18.60
2022-10-11T14:38:37.852Z,18.60
2022-10-11T14:41:04.740Z,18.56
2022-10-11T14:43:31.507Z,18.51
2022-10-11T14:45:58.347Z,18.49
2022-10-11T14:48:53.617Z,18.49
2022-10-11T14:51:14.755Z,18.48
2022-10-11T14:53:41.603Z,18.45
2022-10-11T14:56:08.672Z,18.40
2022-10-11T14:58:35.618Z,18.37
2022-10-11T15:01:02.562Z,18.35
2022-10-11T15:03:29.597Z,18.38
2022-10-11T15:05:56.524Z,18.40
2022-10-11T15:08:23.201Z,18.38
2022-10-11T15:10:49.982Z,18.35
2022-10-11T15:13:16.781Z,18.33
2022-10-11T15:15:44.015Z,18.36
2022-10-11T15:18:13.402Z,18.35
2022-10-11T15:20:43.663Z,18.30
2022-10-11T15:23:11.295Z,18.27
2022-10-11T15:25:39.725Z,18.24
2022-10-11T15:28:07.415Z,18.22
2022-10-11T15:30:41.019Z,18.18
2022-10-11T15:33:09.051Z,18.14
2022-10-11T15:35:35.936Z,18.09
2022-10-11T15:38:03.394Z,18.04
2022-10-11T15:40:35.549Z,18.00
2022-10-11T15:43:03.771Z,17.97
2022-10-11T15:45:30.687Z,17.93
2022-10-11T15:47:58.058Z,17.89
2022-10-11T15:50:28.429Z,17.84
2022-10-11T15:52:55.172Z,17.82
2022-10-11T15:55:21.960Z,17.79
2022-10-11T15:57:48.719Z,17.77
2022-10-11T16:00:21.298Z,17.74
2022-10-11T16:02:50.970Z,17.75
2022-10-11T16:05:26.893Z,17.70
2022-10-11T16:07:54.553Z,17.73
2022-10-11T16:10:21.453Z,17.69
2022-10-11T16:12:48.401Z,17.69
2022-10-11T16:15:15.814Z,17.66
2022-10-11T16:17:42.572Z,17.63
2022-10-11T16:20:09.476Z,17.61
2022-10-11T16:22:36.536Z,17.59
2022-10-11T16:25:04.763Z,17.53
2022-10-11T16:27:32.282Z,17.48
2022-10-11T16:30:00.651Z,17.42
2022-10-11T16:32:27.788Z,17.40
2022-10-11T16:34:54.648Z,17.33
2022-10-11T16:37:21.338Z,17.32
2022-10-11T16:39:48.165Z,17.29
2022-10-11T16:42:15.026Z,17.27
2022-10-11T16:44:41.983Z,17.23
2022-10-11T16:47:08.811Z,17.23
2022-10-11T16:49:35.618Z,17.20
2022-10-11T16:52:02.443Z,17.17
2022-10-11T16:54:29.641Z,17.17
2022-10-11T16:56:57.678Z,17.14
2022-10-11T16:59:25.452Z,17.07
2022-10-11T17:01:52.420Z,17.07
2022-10-11T17:04:19.195Z,17.08
2022-10-11T17:06:45.954Z,17.07
2022-10-11T17:09:13.008Z,17.12
2022-10-11T17:11:40.263Z,17.10
2022-10-11T17:14:07.083Z,17.07
2022-10-11T17:16:34.949Z,17.04
2022-10-11T17:19:02.242Z,17.03
2022-10-11T17:21:29.166Z,17.02
2022-10-11T17:23:56.205Z,16.95
2022-10-11T17:26:26.228Z,16.94
2022-10-11T17:28:55.302Z,16.90
2022-10-11T17:31:23.378Z,16.88
2022-10-11T17:33:50.805Z,16.84
2022-10-11T17:36:24.215Z,16.82
2022-10-11T17:38:52.335Z,16.81
2022-10-11T17:41:20.165Z,16.80
2022-10-11T17:43:48.209Z,16.72
2022-10-11T17:46:17.248Z,16.67
2022-10-11T17:48:44.724Z,16.58
2022-10-11T17:51:17.996Z,16.53
2022-10-11T17:53:47.119Z,16.51
2022-10-11T17:56:16.273Z,16.45
2022-10-11T17:58:43.779Z,16.42
2022-10-11T18:01:14.253Z,16.37
2022-10-11T18:03:42.423Z,16.23
2022-10-11T18:06:12.934Z,16.11
2022-10-11T18:08:41.167Z,16.11
2022-10-11T18:11:13.287Z,16.03
2022-10-11T18:13:41.016Z,16.17
2022-10-11T18:16:10.670Z,16.26
2022-10-11T18:18:38.615Z,16.30
2022-10-11T18:21:05.900Z,16.24
2022-10-11T18:23:33.007Z,16.19
2022-10-11T18:25:59.887Z,16.09
2022-10-11T18:28:27.110Z,16.04
2022-10-11T18:30:54.830Z,15.96
2022-10-11T18:33:22.025Z,15.91
2022-10-11T18:35:49.902Z,15.88
2022-10-11T18:38:17.678Z,15.85
2022-10-11T18:40:47.274Z,15.82
2022-10-11T18:43:14.394Z,15.79
2022-10-11T18:45:41.560Z,15.79
2022-10-11T18:48:09.058Z,15.76
2022-10-11T18:50:36.444Z,15.74
2022-10-11T18:55:35.890Z,15.68
2022-10-11T18:58:03.754Z,15.66
2022-10-11T19:00:40.798Z,15.63
2022-10-11T19:03:08.422Z,15.63
2022-10-11T19:05:39.126Z,15.61
2022-10-11T19:08:06.354Z,15.59
2022-10-11T19:10:34.743Z,15.55
2022-10-11T19:13:02.445Z,15.61
2022-10-11T19:15:29.593Z,15.52
2022-10-11T19:17:57.056Z,15.46
2022-10-11T19:20:23.946Z,15.46
2022-10-11T19:22:51.579Z,15.54
2022-10-11T19:25:18.905Z,15.60
2022-10-11T19:27:46.617Z,15.63
2022-10-11T19:30:13.524Z,15.63
2022-10-11T19:32:40.524Z,15.61
2022-10-11T19:35:08.497Z,15.48
2022-10-11T19:37:35.479Z,15.37
2022-10-11T19:40:02.738Z,15.18
2022-10-11T19:42:29.970Z,15.09
2022-10-11T19:44:57.129Z,14.96
2022-10-11T19:47:24.851Z,14.96
2022-10-11T19:49:52.370Z,14.93
2022-10-11T19:52:19.967Z,15.14
2022-10-11T19:54:47.031Z,15.17
2022-10-11T19:57:14.451Z,15.01
2022-10-11T19:59:41.545Z,14.88
2022-10-11T20:02:12.961Z,14.90
2022-10-11T20:04:51.996Z,14.80
2022-10-11T20:07:19.358Z,14.76
2022-10-11T20:09:46.272Z,14.74
2022-10-11T20:12:13.095Z,14.68
2022-10-11T20:14:39.842Z,14.81
2022-10-11T20:17:06.653Z,14.85
2022-10-11T20:19:33.365Z,14.76
2022-10-11T20:22:01.185Z,14.94
2022-10-11T20:24:28.625Z,15.10
2022-10-11T20:26:55.646Z,15.17
2022-10-11T20:29:24.326Z,15.22
2022-10-11T20:31:51.467Z,15.25
2022-10-11T20:34:18.306Z,15.22
2022-10-11T20:36:48.967Z,15.08
2022-10-11T20:39:16.751Z,14.94
2022-10-11T20:41:43.556Z,14.90
2022-10-11T20:44:10.842Z,14.77
2022-10-11T20:46:39.205Z,14.75
2022-10-11T20:49:11.895Z,14.70
2022-10-11T20:51:40.837Z,14.69
2022-10-11T20:54:07.648Z,14.57
2022-10-11T20:56:35.111Z,14.64
2022-10-11T20:59:02.142Z,14.60
2022-10-11T21:01:54.042Z,14.70
2022-10-11T21:04:20.812Z,14.70
2022-10-11T21:06:49.265Z,14.61
2022-10-11T21:09:17.226Z,14.60
2022-10-11T21:11:44.272Z,14.66
2022-10-11T21:14:11.292Z,14.72
2022-10-11T21:16:38.074Z,14.79
2022-10-11T21:19:04.844Z,14.78
2022-10-11T21:21:31.777Z,14.79
2022-10-11T21:24:02.456Z,14.72
2022-10-11T21:26:30.474Z,14.79
2022-10-11T21:28:57.884Z,14.81
2022-10-11T21:31:26.625Z,14.75
2022-10-11T21:33:57.458Z,14.76
2022-10-11T21:36:24.305Z,14.78
2022-10-11T21:38:52.160Z,14.63
2022-10-11T21:41:22.837Z,14.51
2022-10-11T21:43:49.742Z,14.60
2022-10-11T21:46:54.045Z,14.54
2022-10-11T21:49:17.053Z,14.52
2022-10-11T21:51:43.994Z,14.44
2022-10-11T21:54:10.834Z,14.52
2022-10-11T21:56:37.884Z,14.61
2022-10-11T21:59:06.696Z,14.48
2022-10-11T22:01:36.767Z,14.52
2022-10-11T22:04:05.362Z,14.54
2022-10-11T22:06:32.397Z,14.61
2022-10-11T22:08:59.299Z,14.44
2022-10-11T22:11:27.260Z,14.40
2022-10-11T22:13:54.153Z,14.45
2022-10-11T22:16:21.120Z,14.48
2022-10-11T22:18:48.113Z,14.53
2022-10-11T22:21:20.812Z,14.60
2022-10-11T22:23:49.727Z,14.65
2022-10-11T22:26:22.004Z,14.67
2022-10-11T22:28:49.103Z,14.67
2022-10-11T22:31:18.639Z,14.68
2022-10-11T22:36:17.315Z,14.51
2022-10-11T22:38:44.144Z,14.30
2022-10-11T22:41:11.854Z,14.19
2022-10-11T22:43:39.458Z,14.16
2022-10-11T22:46:07.024Z,14.06
2022-10-11T22:48:34.063Z,14.14
2022-10-11T22:51:01.564Z,14.11
2022-10-11T22:53:28.483Z,14.05
2022-10-11T22:55:55.375Z,14.09
2022-10-11T22:58:22.415Z,14.20
2022-10-11T23:00:49.268Z,14.31
2022-10-11T23:03:17.678Z,14.34
2022-10-11T23:05:44.656Z,14.41
2022-10-11T23:08:11.382Z,14.41
2022-10-11T23:10:39.672Z,14.38
2022-10-11T23:13:06.474Z,14.34
2022-10-11T23:15:33.277Z,14.32
2022-10-11T23:18:00.052Z,14.31
2022-10-11T23:20:27.165Z,14.30
2022-10-11T23:22:53.878Z,14.26
2022-10-11T23:25:20.687Z,14.27
2022-10-11T23:27:47.410Z,14.23
2022-10-11T23:30:14.286Z,14.18
2022-10-11T23:32:41.037Z,14.17
2022-10-11T23:35:08.381Z,14.21
2022-10-11T23:37:36.279Z,14.23
2022-10-11T23:40:04.159Z,14.13
2022-10-11T23:42:30.968Z,13.89
2022-10-11T23:44:57.711Z,13.76
2022-10-11T23:47:24.508Z,13.69
2022-10-11T23:49:51.328Z,13.64
2022-10-11T23:52:18.129Z,13.70
2022-10-11T23:54:44.942Z,13.76
2022-10-11T23:57:12.543Z,13.83
2022-10-11T23:59:39.271Z,13.85
